DAL4522 TXKF-MTPP
Flight info
| Callsign | DAL4522 |
|---|---|
| Flight time | 2h 21m |
| Altitude | 30000 |
| Route | GECAL DCT VINSO DCT SINGL DCT CERDA M594 GTK G444 BOTES DCT HCN DCT SAVAR SAVAR1C |
| Aircraft | B738/M-SDE2E3FGHIRWXY/LB1 |
Departure
| Time | 2026-04-27 10:11 |
|---|---|
| Airport | L.F. Wade International Airport (TXKF) |
Arrival
| Time | 2026-04-27 12:32 |
|---|---|
| Airport | Toussaint Louverture International Airport (MTPP) |
| Time | Latitude | Longitude | Altitude | Speed | Heading |
|---|---|---|---|---|---|
| 2026-04-27 09:57 | 32.36045 | -64.70186 | 26 ft | 0 kts | 153° |
| 2026-04-27 10:05 | 32.36060 | -64.70195 | 30 ft | 4 kts | 152° |
| 2026-04-27 10:06 | 32.36084 | -64.70211 | 26 ft | 4 kts | 147° |
| 2026-04-27 10:06 | 32.36106 | -64.70229 | 28 ft | 4 kts | 140° |
| 2026-04-27 10:06 | 32.36116 | -64.70239 | 30 ft | 1 kts | 136° |
| 2026-04-27 10:08 | 32.36127 | -64.70196 | 28 ft | 12 kts | 55° |
| 2026-04-27 10:08 | 32.36191 | -64.70096 | 28 ft | 18 kts | 40° |
| 2026-04-27 10:08 | 32.36307 | -64.69997 | 27 ft | 23 kts | 42° |
| 2026-04-27 10:09 | 32.36385 | -64.69824 | 26 ft | 25 kts | 68° |
| 2026-04-27 10:09 | 32.36450 | -64.69639 | 28 ft | 24 kts | 67° |
| 2026-04-27 10:09 | 32.36512 | -64.69465 | 26 ft | 23 kts | 62° |
| 2026-04-27 10:09 | 32.36588 | -64.69410 | 28 ft | 10 kts | 15° |
| 2026-04-27 10:10 | 32.36653 | -64.69380 | 27 ft | 10 kts | 50° |
| 2026-04-27 10:10 | 32.36647 | -64.69274 | 30 ft | 31 kts | 101° |
| 2026-04-27 10:10 | 32.36548 | -64.68701 | 27 ft | 109 kts | 101° |
| 2026-04-27 10:10 | 32.36353 | -64.67556 | 70 ft | 170 kts | 104° |
| 2026-04-27 10:11 | 32.36012 | -64.66132 | 618 ft | 188 kts | 115° |
| 2026-04-27 10:11 | 32.35317 | -64.64786 | 1229 ft | 198 kts | 134° |
| 2026-04-27 10:11 | 32.34171 | -64.63807 | 1829 ft | 210 kts | 155° |
| 2026-04-27 10:11 | 32.32709 | -64.63493 | 2356 ft | 221 kts | 181° |
| 2026-04-27 10:12 | 32.31131 | -64.63422 | 2751 ft | 235 kts | 181° |
| 2026-04-27 10:12 | 32.29559 | -64.64035 | 3360 ft | 245 kts | 211° |
| 2026-04-27 10:12 | 32.28139 | -64.65155 | 4223 ft | 245 kts | 212° |
| 2026-04-27 10:12 | 32.26715 | -64.66287 | 5048 ft | 248 kts | 212° |
| 2026-04-27 10:13 | 32.25273 | -64.67431 | 5848 ft | 251 kts | 211° |
| 2026-04-27 10:13 | 32.23718 | -64.68384 | 6586 ft | 254 kts | 202° |
| 2026-04-27 10:13 | 32.22055 | -64.69132 | 7319 ft | 257 kts | 199° |
| 2026-04-27 10:13 | 32.20350 | -64.69790 | 8060 ft | 260 kts | 198° |
| 2026-04-27 10:14 | 32.18599 | -64.70403 | 8786 ft | 264 kts | 197° |
| 2026-04-27 10:14 | 32.16819 | -64.70985 | 9503 ft | 268 kts | 196° |
| 2026-04-27 10:14 | 32.15004 | -64.71548 | 10207 ft | 272 kts | 196° |
| 2026-04-27 10:14 | 32.13160 | -64.72096 | 10883 ft | 274 kts | 195° |
| 2026-04-27 10:15 | 32.11284 | -64.72638 | 11424 ft | 284 kts | 195° |
| 2026-04-27 10:15 | 32.09279 | -64.73206 | 11583 ft | 308 kts | 195° |
| 2026-04-27 10:15 | 32.07123 | -64.73806 | 11762 ft | 329 kts | 195° |
| 2026-04-27 10:15 | 32.04827 | -64.74435 | 11982 ft | 347 kts | 194° |
| 2026-04-27 10:16 | 32.02442 | -64.75079 | 12493 ft | 355 kts | 194° |
| 2026-04-27 10:16 | 32.00023 | -64.75726 | 13152 ft | 358 kts | 194° |
| 2026-04-27 10:16 | 31.97584 | -64.76375 | 13840 ft | 361 kts | 194° |
| 2026-04-27 10:16 | 31.95124 | -64.77027 | 14412 ft | 364 kts | 194° |
| 2026-04-27 10:17 | 31.92640 | -64.77685 | 15000 ft | 367 kts | 195° |
| 2026-04-27 10:17 | 31.90135 | -64.78347 | 15585 ft | 371 kts | 195° |
| 2026-04-27 10:17 | 31.87606 | -64.79016 | 16141 ft | 375 kts | 195° |
| 2026-04-27 10:17 | 31.85049 | -64.79691 | 16702 ft | 378 kts | 195° |
| 2026-04-27 10:18 | 31.82507 | -64.80362 | 17247 ft | 381 kts | 195° |
| 2026-04-27 10:18 | 31.79906 | -64.81048 | 17789 ft | 385 kts | 195° |
| 2026-04-27 10:18 | 31.77286 | -64.81739 | 18318 ft | 388 kts | 196° |
| 2026-04-27 10:18 | 31.74638 | -64.82437 | 18777 ft | 391 kts | 196° |
| 2026-04-27 10:19 | 31.71973 | -64.83138 | 19262 ft | 394 kts | 196° |
| 2026-04-27 10:19 | 31.69293 | -64.83843 | 19734 ft | 396 kts | 196° |
| 2026-04-27 10:19 | 31.66590 | -64.84554 | 20206 ft | 399 kts | 196° |
| 2026-04-27 10:19 | 31.63878 | -64.85267 | 20677 ft | 401 kts | 196° |
| 2026-04-27 10:20 | 31.61139 | -64.85986 | 21124 ft | 404 kts | 196° |
| 2026-04-27 10:20 | 31.58390 | -64.86708 | 21552 ft | 407 kts | 196° |
| 2026-04-27 10:20 | 31.55611 | -64.87437 | 21973 ft | 410 kts | 196° |
| 2026-04-27 10:20 | 31.52823 | -64.88168 | 22402 ft | 412 kts | 196° |
| 2026-04-27 10:21 | 31.50011 | -64.88905 | 22824 ft | 415 kts | 196° |
| 2026-04-27 10:21 | 31.47187 | -64.89644 | 23231 ft | 417 kts | 196° |
| 2026-04-27 10:21 | 31.44340 | -64.90389 | 23635 ft | 420 kts | 196° |
| 2026-04-27 10:21 | 31.41478 | -64.91138 | 23973 ft | 422 kts | 196° |
| 2026-04-27 10:22 | 31.38605 | -64.91888 | 24339 ft | 424 kts | 196° |
| 2026-04-27 10:22 | 31.35727 | -64.92640 | 24694 ft | 425 kts | 196° |
| 2026-04-27 10:22 | 31.32868 | -64.93386 | 25029 ft | 427 kts | 196° |
| 2026-04-27 10:22 | 31.29927 | -64.94153 | 25364 ft | 429 kts | 196° |
| 2026-04-27 10:23 | 31.27009 | -64.94914 | 25701 ft | 430 kts | 196° |
| 2026-04-27 10:23 | 31.24123 | -64.95665 | 26020 ft | 432 kts | 196° |
| 2026-04-27 10:23 | 31.21183 | -64.96431 | 26322 ft | 434 kts | 196° |
| 2026-04-27 10:23 | 31.18230 | -64.97200 | 26638 ft | 435 kts | 196° |
| 2026-04-27 10:24 | 31.15269 | -64.97969 | 26958 ft | 437 kts | 196° |
| 2026-04-27 10:24 | 31.12296 | -64.98742 | 27255 ft | 439 kts | 196° |
| 2026-04-27 10:24 | 31.09313 | -64.99517 | 27531 ft | 441 kts | 196° |
| 2026-04-27 10:24 | 31.06314 | -65.00295 | 27815 ft | 442 kts | 196° |
| 2026-04-27 10:25 | 31.03305 | -65.01076 | 28087 ft | 444 kts | 195° |
| 2026-04-27 10:25 | 31.00283 | -65.01859 | 28345 ft | 446 kts | 195° |
| 2026-04-27 10:25 | 30.97248 | -65.02645 | 28602 ft | 448 kts | 195° |
| 2026-04-27 10:25 | 30.94203 | -65.03433 | 28865 ft | 449 kts | 195° |
| 2026-04-27 10:26 | 30.91147 | -65.04224 | 29138 ft | 450 kts | 195° |
| 2026-04-27 10:26 | 30.88089 | -65.05014 | 29489 ft | 450 kts | 195° |
| 2026-04-27 10:26 | 30.85041 | -65.05800 | 29903 ft | 448 kts | 195° |
| 2026-04-27 10:26 | 30.81998 | -65.06586 | 30099 ft | 450 kts | 195° |
| 2026-04-27 10:27 | 30.75842 | -65.08175 | 30086 ft | 454 kts | 195° |
| 2026-04-27 10:27 | 30.69690 | -65.09759 | 30092 ft | 451 kts | 195° |
| 2026-04-27 10:28 | 30.63571 | -65.11332 | 30088 ft | 450 kts | 195° |
| 2026-04-27 10:28 | 30.57471 | -65.12900 | 30093 ft | 449 kts | 195° |
| 2026-04-27 10:29 | 30.51374 | -65.14465 | 30093 ft | 449 kts | 195° |
| 2026-04-27 10:29 | 30.45265 | -65.16031 | 30094 ft | 450 kts | 195° |
| 2026-04-27 10:30 | 30.39141 | -65.17599 | 30089 ft | 452 kts | 195° |
| 2026-04-27 10:30 | 30.32992 | -65.19171 | 30091 ft | 453 kts | 195° |
| 2026-04-27 10:31 | 30.26811 | -65.20749 | 30090 ft | 455 kts | 195° |
| 2026-04-27 10:31 | 30.20614 | -65.22329 | 30090 ft | 457 kts | 195° |
| 2026-04-27 10:32 | 30.14443 | -65.23900 | 30090 ft | 458 kts | 195° |
| 2026-04-27 10:32 | 30.08218 | -65.25483 | 30083 ft | 458 kts | 195° |
| 2026-04-27 10:33 | 30.03039 | -65.26798 | 30086 ft | 459 kts | 195° |
| 2026-04-27 10:33 | 29.96765 | -65.28390 | 30084 ft | 459 kts | 195° |
| 2026-04-27 10:34 | 29.90577 | -65.29958 | 30086 ft | 458 kts | 195° |
| 2026-04-27 10:34 | 29.84352 | -65.31533 | 30081 ft | 458 kts | 195° |
| 2026-04-27 10:35 | 29.78131 | -65.33105 | 30079 ft | 457 kts | 195° |
| 2026-04-27 10:35 | 29.71922 | -65.34673 | 30081 ft | 457 kts | 195° |
| 2026-04-27 10:36 | 29.65717 | -65.36237 | 30078 ft | 456 kts | 195° |
| 2026-04-27 10:36 | 29.59520 | -65.37798 | 30080 ft | 456 kts | 195° |
| 2026-04-27 10:37 | 29.53329 | -65.39355 | 30078 ft | 455 kts | 195° |
| 2026-04-27 10:37 | 29.47148 | -65.40908 | 30083 ft | 454 kts | 195° |
| 2026-04-27 10:38 | 29.41206 | -65.43189 | 30087 ft | 448 kts | 209° |
| 2026-04-27 10:38 | 29.36013 | -65.47060 | 30074 ft | 445 kts | 217° |
| 2026-04-27 10:39 | 29.30956 | -65.51170 | 30078 ft | 445 kts | 217° |
| 2026-04-27 10:39 | 29.25888 | -65.55255 | 30076 ft | 446 kts | 217° |
| 2026-04-27 10:40 | 29.20798 | -65.59319 | 30077 ft | 446 kts | 217° |
| 2026-04-27 10:40 | 29.15734 | -65.63345 | 30074 ft | 446 kts | 217° |
| 2026-04-27 10:41 | 29.10626 | -65.67399 | 30075 ft | 447 kts | 217° |
| 2026-04-27 10:41 | 29.05516 | -65.71450 | 30075 ft | 447 kts | 217° |
| 2026-04-27 10:42 | 29.00400 | -65.75501 | 30073 ft | 447 kts | 217° |
| 2026-04-27 10:42 | 28.95283 | -65.79549 | 30070 ft | 448 kts | 217° |
| 2026-04-27 10:43 | 28.90157 | -65.83598 | 30070 ft | 448 kts | 217° |
| 2026-04-27 10:43 | 28.85032 | -65.87643 | 30068 ft | 448 kts | 217° |
| 2026-04-27 10:44 | 28.79906 | -65.91682 | 30066 ft | 448 kts | 217° |
| 2026-04-27 10:44 | 28.74780 | -65.95717 | 30068 ft | 448 kts | 217° |
| 2026-04-27 10:45 | 28.72220 | -65.97730 | 29955 ft | 447 kts | 217° |
| 2026-04-27 10:45 | 28.69679 | -65.99725 | 30008 ft | 438 kts | 217° |
| 2026-04-27 10:45 | 28.64735 | -66.03604 | 30062 ft | 429 kts | 217° |
| 2026-04-27 10:46 | 28.59815 | -66.07466 | 30066 ft | 430 kts | 217° |
| 2026-04-27 10:46 | 28.54881 | -66.11333 | 30064 ft | 431 kts | 217° |
| 2026-04-27 10:47 | 28.49932 | -66.15207 | 30067 ft | 433 kts | 217° |
| 2026-04-27 10:47 | 28.44966 | -66.19089 | 30063 ft | 434 kts | 217° |
| 2026-04-27 10:48 | 28.39983 | -66.22979 | 30058 ft | 435 kts | 217° |
| 2026-04-27 10:48 | 28.34991 | -66.26872 | 30062 ft | 436 kts | 217° |
| 2026-04-27 10:49 | 28.29987 | -66.30769 | 30059 ft | 437 kts | 217° |
| 2026-04-27 10:49 | 28.24970 | -66.34671 | 30056 ft | 437 kts | 217° |
| 2026-04-27 10:50 | 28.19953 | -66.38570 | 30054 ft | 437 kts | 217° |
| 2026-04-27 10:50 | 28.14930 | -66.42469 | 30057 ft | 438 kts | 217° |
| 2026-04-27 10:51 | 28.09903 | -66.46366 | 30052 ft | 438 kts | 217° |
| 2026-04-27 10:51 | 28.04904 | -66.50237 | 30055 ft | 438 kts | 217° |
| 2026-04-27 10:52 | 27.99840 | -66.54154 | 30053 ft | 438 kts | 217° |
| 2026-04-27 10:52 | 27.94801 | -66.58047 | 30054 ft | 439 kts | 217° |
| 2026-04-27 10:53 | 27.87234 | -66.63885 | 30054 ft | 439 kts | 217° |
| 2026-04-27 10:54 | 27.82185 | -66.67774 | 30056 ft | 440 kts | 217° |
| 2026-04-27 10:54 | 27.77163 | -66.71639 | 30046 ft | 440 kts | 217° |
| 2026-04-27 10:55 | 27.72100 | -66.75531 | 30047 ft | 440 kts | 217° |
| 2026-04-27 10:55 | 27.67030 | -66.79423 | 30051 ft | 441 kts | 217° |
| 2026-04-27 10:56 | 27.61948 | -66.83321 | 30048 ft | 442 kts | 217° |
| 2026-04-27 10:56 | 27.56859 | -66.87219 | 30049 ft | 443 kts | 217° |
| 2026-04-27 10:57 | 27.51758 | -66.91123 | 30046 ft | 444 kts | 217° |
| 2026-04-27 10:57 | 27.46645 | -66.95030 | 30052 ft | 445 kts | 217° |
| 2026-04-27 10:58 | 27.41521 | -66.98942 | 30048 ft | 446 kts | 217° |
| 2026-04-27 10:58 | 27.36383 | -67.02860 | 30051 ft | 447 kts | 217° |
| 2026-04-27 10:59 | 27.31233 | -67.06782 | 30044 ft | 447 kts | 217° |
| 2026-04-27 10:59 | 27.26069 | -67.10711 | 30055 ft | 448 kts | 217° |
| 2026-04-27 11:00 | 27.18307 | -67.16609 | 30048 ft | 450 kts | 217° |
| 2026-04-27 11:00 | 27.13120 | -67.20546 | 30044 ft | 451 kts | 217° |
| 2026-04-27 11:01 | 27.07908 | -67.24476 | 30049 ft | 452 kts | 216° |
| 2026-04-27 11:01 | 27.02488 | -67.28112 | 30039 ft | 455 kts | 213° |
| 2026-04-27 11:02 | 26.96980 | -67.31626 | 30041 ft | 456 kts | 213° |
| 2026-04-27 11:02 | 26.91477 | -67.35149 | 30043 ft | 456 kts | 213° |
| 2026-04-27 11:03 | 26.85972 | -67.38706 | 30043 ft | 457 kts | 214° |
| 2026-04-27 11:03 | 26.80461 | -67.42278 | 30047 ft | 458 kts | 214° |
| 2026-04-27 11:04 | 26.74942 | -67.45853 | 30043 ft | 459 kts | 214° |
| 2026-04-27 11:04 | 26.69411 | -67.49431 | 30039 ft | 460 kts | 214° |
| 2026-04-27 11:05 | 26.63869 | -67.53012 | 30033 ft | 460 kts | 214° |
| 2026-04-27 11:05 | 26.58322 | -67.56592 | 30035 ft | 461 kts | 214° |
| 2026-04-27 11:06 | 26.52765 | -67.60173 | 30029 ft | 462 kts | 214° |
| 2026-04-27 11:06 | 26.47196 | -67.63758 | 30029 ft | 462 kts | 214° |
| 2026-04-27 11:07 | 26.41621 | -67.67343 | 30035 ft | 462 kts | 214° |
| 2026-04-27 11:07 | 26.36084 | -67.70901 | 30033 ft | 462 kts | 214° |
| 2026-04-27 11:08 | 26.30507 | -67.74479 | 30032 ft | 462 kts | 214° |
| 2026-04-27 11:08 | 26.24932 | -67.78052 | 30041 ft | 462 kts | 214° |
| 2026-04-27 11:09 | 26.19355 | -67.81622 | 30040 ft | 462 kts | 214° |
| 2026-04-27 11:09 | 26.13776 | -67.85190 | 30038 ft | 462 kts | 214° |
| 2026-04-27 11:10 | 26.08202 | -67.88751 | 30036 ft | 462 kts | 214° |
| 2026-04-27 11:10 | 26.02634 | -67.92303 | 30041 ft | 461 kts | 214° |
| 2026-04-27 11:11 | 25.97075 | -67.95847 | 30032 ft | 460 kts | 214° |
| 2026-04-27 11:11 | 25.91518 | -67.99385 | 30038 ft | 459 kts | 214° |
| 2026-04-27 11:12 | 25.85976 | -68.02910 | 30034 ft | 459 kts | 214° |
| 2026-04-27 11:12 | 25.80443 | -68.06425 | 30036 ft | 458 kts | 214° |
| 2026-04-27 11:13 | 25.74921 | -68.09929 | 30034 ft | 457 kts | 214° |
| 2026-04-27 11:13 | 25.69405 | -68.13426 | 30027 ft | 456 kts | 214° |
| 2026-04-27 11:14 | 25.63899 | -68.16912 | 30033 ft | 455 kts | 214° |
| 2026-04-27 11:14 | 25.58398 | -68.20392 | 30023 ft | 455 kts | 214° |
| 2026-04-27 11:15 | 25.52938 | -68.23842 | 30024 ft | 454 kts | 214° |
| 2026-04-27 11:15 | 25.47449 | -68.27307 | 30029 ft | 454 kts | 214° |
| 2026-04-27 11:16 | 25.41966 | -68.30765 | 30029 ft | 454 kts | 214° |
| 2026-04-27 11:16 | 25.36482 | -68.34219 | 30030 ft | 453 kts | 214° |
| 2026-04-27 11:17 | 25.31004 | -68.37666 | 30031 ft | 453 kts | 214° |
| 2026-04-27 11:17 | 25.25533 | -68.41105 | 30029 ft | 452 kts | 214° |
| 2026-04-27 11:18 | 25.20069 | -68.44535 | 30032 ft | 451 kts | 214° |
| 2026-04-27 11:18 | 25.14617 | -68.47955 | 30031 ft | 450 kts | 214° |
| 2026-04-27 11:19 | 25.10093 | -68.50790 | 30034 ft | 449 kts | 214° |
| 2026-04-27 11:19 | 25.04660 | -68.54191 | 30024 ft | 449 kts | 214° |
| 2026-04-27 11:20 | 24.99233 | -68.57586 | 30028 ft | 448 kts | 214° |
| 2026-04-27 11:20 | 24.93812 | -68.60972 | 30028 ft | 448 kts | 214° |
| 2026-04-27 11:21 | 24.88392 | -68.64356 | 30029 ft | 448 kts | 214° |
| 2026-04-27 11:21 | 24.82974 | -68.67735 | 30030 ft | 448 kts | 214° |
| 2026-04-27 11:22 | 24.77546 | -68.71116 | 30032 ft | 449 kts | 214° |
| 2026-04-27 11:22 | 24.72109 | -68.74500 | 30024 ft | 449 kts | 213° |
| 2026-04-27 11:23 | 24.66661 | -68.77886 | 30027 ft | 450 kts | 213° |
| 2026-04-27 11:23 | 24.61202 | -68.81277 | 30025 ft | 451 kts | 213° |
| 2026-04-27 11:24 | 24.55731 | -68.84671 | 30024 ft | 452 kts | 213° |
| 2026-04-27 11:24 | 24.50248 | -68.88069 | 30026 ft | 453 kts | 213° |
| 2026-04-27 11:25 | 24.44762 | -68.91467 | 30023 ft | 453 kts | 213° |
| 2026-04-27 11:25 | 24.39262 | -68.94868 | 30023 ft | 454 kts | 212° |
| 2026-04-27 11:26 | 24.33702 | -68.98169 | 30029 ft | 455 kts | 211° |
| 2026-04-27 11:26 | 24.28104 | -69.01421 | 30025 ft | 455 kts | 211° |
| 2026-04-27 11:27 | 24.22506 | -69.04678 | 30027 ft | 456 kts | 211° |
| 2026-04-27 11:27 | 24.16949 | -69.07923 | 30024 ft | 456 kts | 211° |
| 2026-04-27 11:28 | 24.11354 | -69.11193 | 30025 ft | 456 kts | 211° |
| 2026-04-27 11:28 | 24.05760 | -69.14460 | 30030 ft | 456 kts | 211° |
| 2026-04-27 11:29 | 24.00162 | -69.17726 | 30026 ft | 456 kts | 211° |
| 2026-04-27 11:29 | 23.94565 | -69.20988 | 30025 ft | 456 kts | 211° |
| 2026-04-27 11:30 | 23.88968 | -69.24246 | 30029 ft | 456 kts | 210° |
| 2026-04-27 11:30 | 23.83369 | -69.27502 | 30028 ft | 456 kts | 211° |
| 2026-04-27 11:31 | 23.77772 | -69.30753 | 30027 ft | 456 kts | 211° |
| 2026-04-27 11:31 | 23.72176 | -69.34001 | 30027 ft | 455 kts | 211° |
| 2026-04-27 11:32 | 23.66588 | -69.37242 | 30031 ft | 455 kts | 210° |
| 2026-04-27 11:32 | 23.61004 | -69.40476 | 30025 ft | 454 kts | 210° |
| 2026-04-27 11:33 | 23.55426 | -69.43704 | 30027 ft | 453 kts | 211° |
| 2026-04-27 11:33 | 23.49862 | -69.46921 | 30028 ft | 452 kts | 211° |
| 2026-04-27 11:34 | 23.44309 | -69.50129 | 30029 ft | 451 kts | 211° |
| 2026-04-27 11:34 | 23.38799 | -69.53308 | 30028 ft | 450 kts | 211° |
| 2026-04-27 11:35 | 23.33272 | -69.56495 | 30023 ft | 449 kts | 211° |
| 2026-04-27 11:35 | 23.27757 | -69.59671 | 30024 ft | 447 kts | 211° |
| 2026-04-27 11:36 | 23.22258 | -69.62836 | 30024 ft | 446 kts | 211° |
| 2026-04-27 11:36 | 23.16771 | -69.65990 | 30026 ft | 445 kts | 211° |
| 2026-04-27 11:37 | 23.11298 | -69.69134 | 30027 ft | 445 kts | 211° |
| 2026-04-27 11:37 | 23.05825 | -69.72275 | 30023 ft | 444 kts | 211° |
| 2026-04-27 11:38 | 23.00397 | -69.75388 | 30027 ft | 444 kts | 211° |
| 2026-04-27 11:38 | 22.94934 | -69.78517 | 30027 ft | 444 kts | 211° |
| 2026-04-27 11:39 | 22.89472 | -69.81643 | 30030 ft | 444 kts | 211° |
| 2026-04-27 11:39 | 22.84011 | -69.84766 | 30026 ft | 444 kts | 211° |
| 2026-04-27 11:40 | 22.78545 | -69.87890 | 30025 ft | 444 kts | 211° |
| 2026-04-27 11:40 | 22.73264 | -69.91291 | 30018 ft | 439 kts | 221° |
| 2026-04-27 11:41 | 22.68701 | -69.95652 | 30020 ft | 437 kts | 225° |
| 2026-04-27 11:41 | 22.64170 | -70.00047 | 30025 ft | 437 kts | 225° |
| 2026-04-27 11:42 | 22.59623 | -70.04411 | 30026 ft | 436 kts | 224° |
| 2026-04-27 11:42 | 22.55075 | -70.08750 | 30028 ft | 436 kts | 224° |
| 2026-04-27 11:43 | 22.50532 | -70.13078 | 30027 ft | 435 kts | 224° |
| 2026-04-27 11:43 | 22.45997 | -70.17395 | 30028 ft | 433 kts | 225° |
| 2026-04-27 11:44 | 22.41501 | -70.21673 | 30026 ft | 432 kts | 225° |
| 2026-04-27 11:44 | 22.36996 | -70.25957 | 30027 ft | 431 kts | 225° |
| 2026-04-27 11:45 | 22.33260 | -70.29510 | 30028 ft | 429 kts | 225° |
| 2026-04-27 11:45 | 22.28136 | -70.34605 | 30032 ft | 427 kts | 226° |
| 2026-04-27 11:46 | 22.23797 | -70.38979 | 30042 ft | 426 kts | 226° |
| 2026-04-27 11:46 | 22.19453 | -70.43334 | 30037 ft | 426 kts | 226° |
| 2026-04-27 11:47 | 22.15104 | -70.47678 | 30024 ft | 426 kts | 226° |
| 2026-04-27 11:47 | 22.10757 | -70.52013 | 30034 ft | 426 kts | 226° |
| 2026-04-27 11:48 | 22.06403 | -70.56351 | 30036 ft | 426 kts | 226° |
| 2026-04-27 11:48 | 22.02043 | -70.60690 | 30030 ft | 427 kts | 226° |
| 2026-04-27 11:49 | 21.97679 | -70.65031 | 30027 ft | 427 kts | 226° |
| 2026-04-27 11:49 | 21.93316 | -70.69366 | 30028 ft | 427 kts | 226° |
| 2026-04-27 11:50 | 21.88970 | -70.73682 | 30025 ft | 428 kts | 226° |
| 2026-04-27 11:50 | 21.84596 | -70.78022 | 30032 ft | 428 kts | 226° |
| 2026-04-27 11:51 | 21.80140 | -70.82273 | 30027 ft | 429 kts | 223° |
| 2026-04-27 11:52 | 21.73136 | -70.88298 | 30034 ft | 430 kts | 222° |
| 2026-04-27 11:52 | 21.68468 | -70.92310 | 30032 ft | 429 kts | 223° |
| 2026-04-27 11:53 | 21.63817 | -70.96335 | 30027 ft | 429 kts | 223° |
| 2026-04-27 11:53 | 21.59172 | -71.00361 | 30028 ft | 429 kts | 223° |
| 2026-04-27 11:54 | 21.54529 | -71.04381 | 30029 ft | 429 kts | 223° |
| 2026-04-27 11:54 | 21.49883 | -71.08401 | 30028 ft | 429 kts | 223° |
| 2026-04-27 11:55 | 21.45238 | -71.12415 | 30029 ft | 429 kts | 223° |
| 2026-04-27 11:55 | 21.40327 | -71.16015 | 30030 ft | 432 kts | 216° |
| 2026-04-27 11:56 | 21.35174 | -71.19431 | 30029 ft | 432 kts | 216° |
| 2026-04-27 11:56 | 21.30101 | -71.22810 | 30029 ft | 432 kts | 216° |
| 2026-04-27 11:57 | 21.25003 | -71.26228 | 30026 ft | 432 kts | 216° |
| 2026-04-27 11:57 | 21.19909 | -71.29646 | 30030 ft | 432 kts | 216° |
| 2026-04-27 11:58 | 21.14807 | -71.33067 | 30030 ft | 432 kts | 216° |
| 2026-04-27 11:58 | 21.09712 | -71.36481 | 30026 ft | 432 kts | 216° |
| 2026-04-27 11:59 | 21.04595 | -71.39880 | 30029 ft | 433 kts | 215° |
| 2026-04-27 11:59 | 20.99345 | -71.43057 | 30029 ft | 434 kts | 213° |
| 2026-04-27 12:00 | 20.94057 | -71.46175 | 30029 ft | 434 kts | 213° |
| 2026-04-27 12:00 | 20.88783 | -71.49314 | 30031 ft | 434 kts | 214° |
| 2026-04-27 12:01 | 20.83519 | -71.52470 | 30031 ft | 434 kts | 214° |
| 2026-04-27 12:01 | 20.78257 | -71.55629 | 30026 ft | 434 kts | 214° |
| 2026-04-27 12:02 | 20.72996 | -71.58784 | 30022 ft | 433 kts | 214° |
| 2026-04-27 12:02 | 20.67739 | -71.61934 | 30035 ft | 433 kts | 214° |
| 2026-04-27 12:03 | 20.62482 | -71.65081 | 30041 ft | 433 kts | 214° |
| 2026-04-27 12:03 | 20.57230 | -71.68222 | 30030 ft | 433 kts | 214° |
| 2026-04-27 12:04 | 20.51976 | -71.71362 | 30031 ft | 433 kts | 214° |
| 2026-04-27 12:04 | 20.46720 | -71.74503 | 30028 ft | 433 kts | 214° |
| 2026-04-27 12:05 | 20.41472 | -71.77635 | 30026 ft | 432 kts | 214° |
| 2026-04-27 12:05 | 20.36303 | -71.80817 | 30030 ft | 431 kts | 215° |
| 2026-04-27 12:06 | 20.31970 | -71.83530 | 30025 ft | 431 kts | 215° |
| 2026-04-27 12:06 | 20.26797 | -71.86763 | 30024 ft | 431 kts | 215° |
| 2026-04-27 12:07 | 20.21621 | -71.89983 | 30025 ft | 431 kts | 215° |
| 2026-04-27 12:07 | 20.16442 | -71.93199 | 30028 ft | 431 kts | 215° |
| 2026-04-27 12:08 | 20.11392 | -71.96331 | 30026 ft | 430 kts | 215° |
| 2026-04-27 12:08 | 20.06267 | -71.99505 | 30021 ft | 422 kts | 215° |
| 2026-04-27 12:09 | 20.01196 | -72.02647 | 30032 ft | 422 kts | 215° |
| 2026-04-27 12:09 | 19.98644 | -72.04228 | 29625 ft | 424 kts | 215° |
| 2026-04-27 12:09 | 19.96118 | -72.05791 | 29122 ft | 418 kts | 214° |
| 2026-04-27 12:09 | 19.93625 | -72.07331 | 28633 ft | 412 kts | 214° |
| 2026-04-27 12:10 | 19.91163 | -72.08852 | 28095 ft | 407 kts | 214° |
| 2026-04-27 12:10 | 19.88728 | -72.10357 | 27578 ft | 403 kts | 214° |
| 2026-04-27 12:10 | 19.86314 | -72.11850 | 27065 ft | 400 kts | 214° |
| 2026-04-27 12:10 | 19.83919 | -72.13330 | 26569 ft | 396 kts | 214° |
| 2026-04-27 12:11 | 19.81578 | -72.14777 | 26074 ft | 394 kts | 214° |
| 2026-04-27 12:11 | 19.79216 | -72.16236 | 25577 ft | 391 kts | 214° |
| 2026-04-27 12:11 | 19.76867 | -72.17687 | 25062 ft | 390 kts | 214° |
| 2026-04-27 12:11 | 19.74525 | -72.19132 | 24552 ft | 389 kts | 214° |
| 2026-04-27 12:12 | 19.72186 | -72.20574 | 24061 ft | 388 kts | 213° |
| 2026-04-27 12:12 | 19.69853 | -72.22022 | 23513 ft | 389 kts | 214° |
| 2026-04-27 12:12 | 19.67525 | -72.23483 | 22931 ft | 388 kts | 214° |
| 2026-04-27 12:12 | 19.65212 | -72.24941 | 22422 ft | 386 kts | 214° |
| 2026-04-27 12:13 | 19.62915 | -72.26391 | 21921 ft | 383 kts | 214° |
| 2026-04-27 12:13 | 19.60628 | -72.27832 | 21435 ft | 381 kts | 213° |
| 2026-04-27 12:13 | 19.58355 | -72.29264 | 20948 ft | 379 kts | 213° |
| 2026-04-27 12:13 | 19.56093 | -72.30688 | 20450 ft | 377 kts | 213° |
| 2026-04-27 12:14 | 19.53843 | -72.32102 | 19987 ft | 375 kts | 213° |
| 2026-04-27 12:14 | 19.51605 | -72.33509 | 19501 ft | 374 kts | 213° |
| 2026-04-27 12:14 | 19.49370 | -72.34913 | 19013 ft | 373 kts | 213° |
| 2026-04-27 12:14 | 19.47134 | -72.36318 | 18525 ft | 373 kts | 213° |
| 2026-04-27 12:15 | 19.44902 | -72.37720 | 17993 ft | 373 kts | 213° |
| 2026-04-27 12:15 | 19.42678 | -72.39115 | 17490 ft | 371 kts | 212° |
| 2026-04-27 12:15 | 19.40466 | -72.40503 | 16974 ft | 369 kts | 212° |
| 2026-04-27 12:15 | 19.38261 | -72.41886 | 16492 ft | 367 kts | 212° |
| 2026-04-27 12:16 | 19.36071 | -72.43260 | 16035 ft | 365 kts | 212° |
| 2026-04-27 12:16 | 19.33888 | -72.44628 | 15549 ft | 364 kts | 212° |
| 2026-04-27 12:16 | 19.31713 | -72.45990 | 15080 ft | 362 kts | 211° |
| 2026-04-27 12:16 | 19.29546 | -72.47348 | 14613 ft | 361 kts | 211° |
| 2026-04-27 12:17 | 19.27389 | -72.48699 | 14143 ft | 360 kts | 211° |
| 2026-04-27 12:17 | 19.25235 | -72.50049 | 13652 ft | 359 kts | 211° |
| 2026-04-27 12:17 | 19.23093 | -72.51388 | 13149 ft | 357 kts | 211° |
| 2026-04-27 12:17 | 19.20961 | -72.52722 | 12669 ft | 354 kts | 211° |
| 2026-04-27 12:18 | 19.18842 | -72.54046 | 12216 ft | 352 kts | 210° |
| 2026-04-27 12:18 | 19.16740 | -72.55362 | 11829 ft | 348 kts | 210° |
| 2026-04-27 12:18 | 19.14705 | -72.56635 | 11667 ft | 330 kts | 210° |
| 2026-04-27 12:18 | 19.12810 | -72.57819 | 11527 ft | 312 kts | 210° |
| 2026-04-27 12:19 | 19.10988 | -72.58955 | 11359 ft | 297 kts | 210° |
| 2026-04-27 12:19 | 19.09213 | -72.59948 | 11244 ft | 283 kts | 198° |
| 2026-04-27 12:19 | 19.07300 | -72.60297 | 11154 ft | 279 kts | 183° |
| 2026-04-27 12:19 | 19.05344 | -72.60350 | 11047 ft | 277 kts | 181° |
| 2026-04-27 12:20 | 19.03438 | -72.60362 | 10838 ft | 277 kts | 181° |
| 2026-04-27 12:20 | 19.01508 | -72.60373 | 10564 ft | 278 kts | 181° |
| 2026-04-27 12:20 | 18.99572 | -72.60391 | 10276 ft | 278 kts | 181° |
| 2026-04-27 12:20 | 18.97636 | -72.60416 | 9994 ft | 279 kts | 181° |
| 2026-04-27 12:21 | 18.95698 | -72.60444 | 9677 ft | 279 kts | 181° |
| 2026-04-27 12:21 | 18.93759 | -72.60476 | 9364 ft | 278 kts | 181° |
| 2026-04-27 12:21 | 18.91827 | -72.60507 | 9078 ft | 277 kts | 181° |
| 2026-04-27 12:21 | 18.89904 | -72.60541 | 8763 ft | 274 kts | 181° |
| 2026-04-27 12:22 | 18.88030 | -72.60574 | 8474 ft | 266 kts | 181° |
| 2026-04-27 12:22 | 18.86191 | -72.60606 | 8222 ft | 264 kts | 181° |
| 2026-04-27 12:22 | 18.84355 | -72.60639 | 7921 ft | 264 kts | 181° |
| 2026-04-27 12:22 | 18.82523 | -72.60673 | 7663 ft | 262 kts | 181° |
| 2026-04-27 12:23 | 18.80721 | -72.60711 | 7387 ft | 255 kts | 181° |
| 2026-04-27 12:23 | 18.78971 | -72.60749 | 7124 ft | 248 kts | 181° |
| 2026-04-27 12:23 | 18.77268 | -72.60786 | 6867 ft | 241 kts | 181° |
| 2026-04-27 12:23 | 18.75605 | -72.60822 | 6618 ft | 238 kts | 181° |
| 2026-04-27 12:24 | 18.73971 | -72.60858 | 6398 ft | 232 kts | 181° |
| 2026-04-27 12:24 | 18.72382 | -72.60892 | 6142 ft | 225 kts | 181° |
| 2026-04-27 12:24 | 18.70834 | -72.60925 | 5880 ft | 220 kts | 181° |
| 2026-04-27 12:24 | 18.69306 | -72.60958 | 5609 ft | 220 kts | 181° |
| 2026-04-27 12:25 | 18.67773 | -72.60991 | 5340 ft | 220 kts | 181° |
| 2026-04-27 12:25 | 18.66244 | -72.61023 | 5071 ft | 220 kts | 181° |
| 2026-04-27 12:25 | 18.64710 | -72.61056 | 4805 ft | 220 kts | 181° |
| 2026-04-27 12:25 | 18.63181 | -72.61089 | 4534 ft | 220 kts | 180° |
| 2026-04-27 12:26 | 18.61706 | -72.60748 | 4235 ft | 220 kts | 149° |
| 2026-04-27 12:26 | 18.60654 | -72.59621 | 3981 ft | 215 kts | 122° |
| 2026-04-27 12:26 | 18.59954 | -72.58256 | 3716 ft | 209 kts | 117° |
| 2026-04-27 12:26 | 18.59324 | -72.56911 | 3539 ft | 199 kts | 117° |
| 2026-04-27 12:27 | 18.58721 | -72.55636 | 3521 ft | 193 kts | 117° |
| 2026-04-27 12:27 | 18.58118 | -72.54371 | 3514 ft | 193 kts | 117° |
| 2026-04-27 12:27 | 18.57515 | -72.53116 | 3508 ft | 191 kts | 117° |
| 2026-04-27 12:27 | 18.57072 | -72.51807 | 3502 ft | 191 kts | 94° |
| 2026-04-27 12:28 | 18.57049 | -72.50408 | 3507 ft | 193 kts | 91° |
| 2026-04-27 12:28 | 18.57060 | -72.48984 | 3357 ft | 194 kts | 89° |
| 2026-04-27 12:28 | 18.57111 | -72.47575 | 3115 ft | 191 kts | 87° |
| 2026-04-27 12:28 | 18.57175 | -72.46184 | 2875 ft | 189 kts | 87° |
| 2026-04-27 12:29 | 18.57243 | -72.44802 | 2636 ft | 189 kts | 87° |
| 2026-04-27 12:29 | 18.57310 | -72.43418 | 2394 ft | 189 kts | 87° |
| 2026-04-27 12:29 | 18.57376 | -72.42065 | 2161 ft | 179 kts | 87° |
| 2026-04-27 12:29 | 18.57438 | -72.40803 | 1957 ft | 167 kts | 87° |
| 2026-04-27 12:30 | 18.57496 | -72.39628 | 1790 ft | 158 kts | 87° |
| 2026-04-27 12:30 | 18.57551 | -72.38499 | 1584 ft | 154 kts | 87° |
| 2026-04-27 12:30 | 18.57606 | -72.37375 | 1381 ft | 154 kts | 87° |
| 2026-04-27 12:30 | 18.57661 | -72.36248 | 1157 ft | 154 kts | 87° |
| 2026-04-27 12:31 | 18.57717 | -72.35119 | 933 ft | 153 kts | 87° |
| 2026-04-27 12:31 | 18.57780 | -72.34018 | 767 ft | 148 kts | 87° |
| 2026-04-27 12:31 | 18.57819 | -72.32928 | 568 ft | 150 kts | 88° |
| 2026-04-27 12:31 | 18.57875 | -72.31830 | 361 ft | 149 kts | 87° |
| 2026-04-27 12:32 | 18.57931 | -72.30751 | 136 ft | 146 kts | 88° |
| 2026-04-27 12:32 | 18.57977 | -72.29745 | 101 ft | 122 kts | 87° |
| 2026-04-27 12:32 | 18.58014 | -72.29057 | 111 ft | 60 kts | 87° |
| 2026-04-27 12:32 | 18.58030 | -72.28742 | 116 ft | 38 kts | 87° |
| 2026-04-27 12:33 | 18.58039 | -72.28534 | 120 ft | 18 kts | 96° |
| 2026-04-27 12:33 | 18.57978 | -72.28495 | 120 ft | 11 kts | 178° |
| 2026-04-27 12:33 | 18.57906 | -72.28490 | 119 ft | 10 kts | 177° |
| 2026-04-27 12:33 | 18.57836 | -72.28486 | 116 ft | 10 kts | 178° |
| 2026-04-27 12:34 | 18.57814 | -72.28523 | 117 ft | 7 kts | 265° |
| 2026-04-27 12:34 | 18.57802 | -72.28639 | 117 ft | 22 kts | 261° |
| 2026-04-27 12:34 | 18.57753 | -72.28802 | 113 ft | 24 kts | 257° |
| 2026-04-27 12:34 | 18.57750 | -72.28970 | 113 ft | 23 kts | 270° |
| 2026-04-27 12:35 | 18.57731 | -72.29122 | 111 ft | 20 kts | 222° |
| 2026-04-27 12:35 | 18.57694 | -72.29222 | 109 ft | 15 kts | 268° |
| 2026-04-27 12:35 | 18.57690 | -72.29327 | 107 ft | 14 kts | 267° |
| 2026-04-27 12:35 | 18.57682 | -72.29418 | 105 ft | 8 kts | 244° |
| 2026-04-27 12:36 | 18.57629 | -72.29431 | 106 ft | 8 kts | 180° |
| 2026-04-27 12:36 | 18.57616 | -72.29431 | 106 ft | 0 kts | 179° |